Time;durP1;ratioP1;P1;durP2;ratioP2;P2;SDS_P1;SDS_P2;PMS_P1;PMS_P2;Temp;Humidity;BMP_temperature;BMP_pressure;BME280_temperature;BME280_humidity;BME280_pressure;Samples;Min_cycle;Max_cycle;Signal;HPM_P1;HPM_P2
2023/10/11 00:00:31;;;;;;;35.58;21.45;;;;;;;-149.70;100.00;76631.81;5077127;28;20059;-61
2023/10/11 00:03:06;;;;;;;37.05;21.77;;;;;;;-149.70;100.00;76631.81;5077345;28;20044;-61
2023/10/11 00:05:39;;;;;;;30.20;20.23;;;;;;;-149.70;100.00;76633.84;5079698;28;20426;-61
2023/10/11 00:08:13;;;;;;;33.97;20.55;;;;;;;-149.70;100.00;76629.78;5080522;28;20442;-63
2023/10/11 00:10:49;;;;;;;32.92;20.17;;;;;;;-149.70;100.00;76623.69;5079868;28;20169;-61
2023/10/11 00:13:16;;;;;;;31.13;19.35;;;;;;;-149.70;100.00;76625.72;5079914;28;20044;-62
2023/10/11 00:15:50;;;;;;;35.63;20.55;;;;;;;-149.70;100.00;76621.66;5080778;28;20040;-62
2023/10/11 00:18:20;;;;;;;32.58;19.25;;;;;;;-149.70;100.00;76615.56;5080068;28;20052;-63
2023/10/11 00:20:51;;;;;;;30.45;19.25;;;;;;;-149.70;100.00;76621.66;5079778;28;20044;-62
2023/10/11 00:23:23;;;;;;;29.63;18.80;;;;;;;-149.70;100.00;76617.59;5078500;28;20045;-61
2023/10/11 00:25:52;;;;;;;31.80;19.13;;;;;;;-149.70;100.00;76621.66;5080105;28;20094;-61
2023/10/11 00:28:26;;;;;;;34.45;18.67;;;;;;;-149.70;100.00;76621.66;5078561;28;20049;-63
2023/10/11 00:30:57;;;;;;;25.40;17.90;;;;;;;-149.70;100.00;76619.63;5079623;28;20411;-61
2023/10/11 00:33:24;;;;;;;30.58;17.98;;;;;;;-149.70;100.00;76625.72;5079411;28;20060;-62
2023/10/11 00:36:05;;;;;;;28.58;17.50;;;;;;;-149.70;100.00;76631.81;5079873;28;20064;-61
2023/10/11 00:38:42;;;;;;;34.03;17.52;;;;;;;-149.70;100.00;76629.78;5079877;28;20048;-61
2023/10/11 00:41:17;;;;;;;31.63;16.05;;;;;;;-149.70;100.00;76633.84;5078994;28;20102;-62
2023/10/11 00:43:47;;;;;;;33.20;17.23;;;;;;;-149.70;100.00;76633.84;5080042;28;20070;-60
2023/10/11 00:46:19;;;;;;;27.67;16.60;;;;;;;-149.70;100.00;76633.84;5079175;28;20052;-62
2023/10/11 00:51:33;;;;;;;25.25;15.77;;;;;;;-149.70;100.00;76642.00;5079360;28;20056;-61
2023/10/11 00:54:03;;;;;;;30.25;16.23;;;;;;;-149.70;100.00;76642.00;5078955;28;20071;-62
2023/10/11 00:56:33;;;;;;;30.50;15.05;;;;;;;-149.70;100.00;76642.00;5078859;28;20040;-62
2023/10/11 00:59:03;;;;;;;33.75;16.52;;;;;;;-149.70;100.00;76635.88;5078092;28;20444;-62
2023/10/11 01:01:33;;;;;;;27.15;15.60;;;;;;;-149.70;100.00;76635.88;5079473;28;20047;-62
2023/10/11 01:04:00;;;;;;;28.33;15.00;;;;;;;-149.70;100.00;76633.84;5078816;28;20106;-62
2023/10/11 01:06:28;;;;;;;19.77;14.65;;;;;;;-149.70;100.00;76631.81;5077214;28;20471;-62
2023/10/11 01:08:55;;;;;;;34.83;15.02;;;;;;;-149.70;100.00;76631.81;5078721;28;20497;-62
2023/10/11 01:11:22;;;;;;;27.65;14.85;;;;;;;-149.70;100.00;76625.72;5078841;28;20132;-62
2023/10/11 01:13:52;;;;;;;23.45;14.70;;;;;;;-149.70;100.00;76633.84;5078514;28;20071;-62
2023/10/11 01:16:26;;;;;;;25.48;14.43;;;;;;;-149.70;100.00;76625.72;5078188;28;20435;-64
2023/10/11 01:18:54;;;;;;;24.98;13.70;;;;;;;-149.70;100.00;76625.72;5078510;28;20098;-62
2023/10/11 01:21:21;;;;;;;23.15;12.85;;;;;;;-149.70;100.00;76621.66;5078749;28;20064;-61
2023/10/11 01:23:48;;;;;;;23.95;12.68;;;;;;;-149.70;100.00;76621.66;5078353;28;20060;-61
2023/10/11 01:26:15;;;;;;;23.50;12.77;;;;;;;-149.70;100.00;76615.56;5078428;28;20041;-62
2023/10/11 01:28:47;;;;;;;24.10;12.55;;;;;;;-149.70;100.00;76609.44;5077561;28;20126;-63
2023/10/11 01:31:16;;;;;;;21.98;11.85;;;;;;;-149.70;100.00;76609.44;5078389;28;20044;-62
2023/10/11 01:33:49;;;;;;;22.50;12.13;;;;;;;-149.70;100.00;76599.28;5078486;28;20055;-62
2023/10/11 01:36:22;;;;;;;20.60;12.30;;;;;;;-149.70;100.00;76609.44;5078564;28;20044;-61
2023/10/11 01:38:51;;;;;;;24.45;13.00;;;;;;;-149.70;100.00;76601.31;5078227;28;20049;-61
2023/10/11 01:41:22;;;;;;;28.45;12.57;;;;;;;-149.70;100.00;76603.34;5078391;28;20462;-61
2023/10/11 01:43:50;;;;;;;18.75;11.63;;;;;;;-149.70;100.00;76603.34;5078326;28;20419;-60
2023/10/11 01:46:35;;;;;;;25.45;11.50;;;;;;;-149.70;100.00;76603.34;5077790;28;20044;-61
2023/10/11 01:49:05;;;;;;;24.30;10.77;;;;;;;-149.70;100.00;76605.38;5078496;28;20380;-62
2023/10/11 01:51:46;;;;;;;28.85;11.40;;;;;;;-149.70;100.00;76597.25;5078393;28;20040;-62
2023/10/11 01:54:15;;;;;;;27.13;10.80;;;;;;;-149.70;100.00;76601.31;5078747;28;20064;-61
2023/10/11 01:56:42;;;;;;;36.85;11.48;;;;;;;-149.70;100.00;76593.19;5078432;28;20044;-62
2023/10/11 01:59:12;;;;;;;23.90;10.25;;;;;;;-149.70;100.00;76593.19;5078926;28;20044;-62
2023/10/11 02:01:39;;;;;;;16.10;10.32;;;;;;;-149.70;100.00;76599.28;5078843;28;20044;-61
2023/10/11 02:04:16;;;;;;;26.42;11.25;;;;;;;-149.70;100.00;76599.28;5079343;28;20052;-62
2023/10/11 02:07:24;;;;;;;26.30;10.32;;;;;;;-149.70;100.00;76597.25;5078632;28;20101;-62
2023/10/11 02:09:50;;;;;;;20.20;10.23;;;;;;;-149.70;100.00;76609.44;5077932;28;20452;-62
2023/10/11 02:12:17;;;;;;;27.13;10.90;;;;;;;-149.70;100.00;76613.53;5077801;28;20072;-61
2023/10/11 02:14:45;;;;;;;23.80;10.75;;;;;;;-149.70;100.00;76609.44;5077485;28;20110;-62
2023/10/11 02:17:13;;;;;;;28.38;10.68;;;;;;;-149.70;100.00;76609.44;5078736;28;20146;-61
2023/10/11 02:19:39;;;;;;;20.77;10.45;;;;;;;-149.70;100.00;76615.56;5077852;28;20052;-61
2023/10/11 02:22:10;;;;;;;21.40;9.23;;;;;;;-149.70;100.00;76605.38;5076233;28;20052;-62
2023/10/11 02:24:37;;;;;;;38.03;10.30;;;;;;;-149.70;100.00;76599.28;5077293;28;20048;-62
2023/10/11 02:27:06;;;;;;;20.80;9.30;;;;;;;-149.70;100.00;76601.31;5076430;28;20056;-65
2023/10/11 02:29:35;;;;;;;24.45;10.90;;;;;;;-149.70;100.00;76601.31;5077034;28;20040;-62
2023/10/11 02:32:04;;;;;;;19.80;9.48;;;;;;;-149.70;100.00;76601.31;5076801;28;20040;-61
2023/10/11 02:34:30;;;;;;;18.73;9.27;;;;;;;-149.70;100.00;76609.44;5076510;28;20044;-62
2023/10/11 02:37:10;;;;;;;18.13;9.52;;;;;;;-149.70;100.00;76609.44;5076136;28;20055;-62
2023/10/11 02:39:42;;;;;;;23.52;9.98;;;;;;;-149.70;100.00;76605.38;5075917;28;20090;-62
2023/10/11 02:42:09;;;;;;;19.05;9.98;;;;;;;-149.70;100.00;76607.41;5075914;28;20108;-61
2023/10/11 02:44:39;;;;;;;18.20;9.70;;;;;;;-149.70;100.00;76599.28;5075490;28;20048;-61
2023/10/11 02:47:08;;;;;;;21.13;9.68;;;;;;;-149.70;100.00;76599.28;5074841;28;20050;-61
2023/10/11 02:49:35;;;;;;;18.83;9.38;;;;;;;-149.70;100.00;76599.28;5075512;28;20047;-67
2023/10/11 02:52:07;;;;;;;19.98;9.98;;;;;;;-149.70;100.00;76601.31;5075980;28;20048;-62
2023/10/11 02:54:46;;;;;;;22.63;10.38;;;;;;;-149.70;100.00;76597.25;5074431;28;20045;-66
2023/10/11 02:57:19;;;;;;;20.00;10.18;;;;;;;-149.70;100.00;76601.31;5075328;28;20550;-63
2023/10/11 02:59:50;;;;;;;19.35;9.60;;;;;;;-149.70;100.00;76597.25;5075356;28;20045;-60
2023/10/11 03:02:18;;;;;;;24.42;10.68;;;;;;;-149.70;100.00;76597.25;5075121;28;20500;-61
2023/10/11 03:04:45;;;;;;;22.00;10.63;;;;;;;-149.70;100.00;76593.19;5074519;28;20078;-61
2023/10/11 03:07:14;;;;;;;21.52;9.63;;;;;;;-149.70;100.00;76593.19;5074897;28;20659;-61
2023/10/11 03:09:41;;;;;;;26.63;9.77;;;;;;;-149.70;100.00;76593.19;5075027;28;20043;-61
2023/10/11 03:12:30;;;;;;;16.73;9.93;;;;;;;-149.70;100.00;76601.31;5074432;28;20071;-61
2023/10/11 03:15:05;;;;;;;22.58;10.27;;;;;;;-149.70;100.00;76605.38;5075268;28;20066;-60
2023/10/11 03:17:32;;;;;;;25.10;10.43;;;;;;;-149.70;100.00;76607.41;5075928;28;20044;-60
2023/10/11 03:19:59;;;;;;;26.25;10.50;;;;;;;-149.70;100.00;76611.47;5074553;28;20094;-61
2023/10/11 03:22:28;;;;;;;25.23;11.00;;;;;;;-149.70;100.00;76613.53;5073305;27;20102;-61
2023/10/11 03:24:59;;;;;;;30.13;10.20;;;;;;;-149.70;100.00;76617.59;5074162;28;20052;-60
2023/10/11 03:27:27;;;;;;;22.67;10.27;;;;;;;-149.70;100.00;76621.66;5074234;28;20115;-60
2023/10/11 03:29:56;;;;;;;20.33;9.77;;;;;;;-149.70;100.00;76617.59;5073379;28;20066;-63
2023/10/11 03:32:25;;;;;;;24.75;10.90;;;;;;;-149.70;100.00;76621.66;5073848;28;20052;-62
2023/10/11 03:34:52;;;;;;;22.30;10.63;;;;;;;-149.70;100.00;76613.53;5074168;28;20125;-61
2023/10/11 03:37:19;;;;;;;27.95;10.07;;;;;;;-149.70;100.00;76619.63;5074032;28;20450;-61
2023/10/11 03:39:55;;;;;;;21.52;10.65;;;;;;;-149.70;100.00;76617.59;5077869;28;20072;-62
2023/10/11 03:45:08;;;;;;;16.75;10.02;;;;;;;-149.70;100.00;76621.66;5077528;28;20048;-61
2023/10/11 03:47:37;;;;;;;29.17;10.55;;;;;;;-149.70;100.00;76627.75;5078387;28;20415;-63
2023/10/11 03:50:06;;;;;;;27.05;9.52;;;;;;;-149.70;100.00;76619.63;5078627;28;20066;-61
2023/10/11 03:52:33;;;;;;;25.00;10.93;;;;;;;-149.70;100.00;76609.44;5078405;28;20048;-61
2023/10/11 03:55:09;;;;;;;21.17;10.10;;;;;;;-149.70;100.00;76607.41;5078306;28;20503;-61
2023/10/11 03:57:50;;;;;;;20.85;10.77;;;;;;;-149.70;100.00;76609.44;5078175;28;20045;-63
2023/10/11 04:02:58;;;;;;;20.17;9.60;;;;;;;-149.70;100.00;76603.34;5077112;28;20071;-60
2023/10/11 04:05:34;;;;;;;24.92;9.77;;;;;;;-149.70;100.00;76603.34;5076759;28;21562;-62
2023/10/11 04:08:05;;;;;;;21.15;9.25;;;;;;;-149.70;100.00;76607.41;5077372;28;20438;-62
2023/10/11 04:10:39;;;;;;;;;;;;;;;-149.70;100.00;76599.28;5077672;28;20044;-61
2023/10/11 04:13:14;;;;;;;17.02;9.82;;;;;;;-149.70;100.00;76595.22;5077282;28;19968;-62
2023/10/11 04:15:42;;;;;;;16.90;9.35;;;;;;;-149.70;100.00;76597.25;5077388;28;20044;-62
2023/10/11 04:18:20;;;;;;;23.58;9.50;;;;;;;-149.70;100.00;76593.19;5077858;28;20052;-61
2023/10/11 04:21:16;;;;;;;22.17;9.85;;;;;;;-149.70;100.00;76601.31;5077514;28;20075;-61
2023/10/11 04:23:45;;;;;;;19.98;9.27;;;;;;;-149.70;100.00;76599.28;5076780;28;20063;-61
2023/10/11 04:29:06;;;;;;;25.20;9.82;;;;;;;-149.70;100.00;76595.22;5076880;28;20460;-60
2023/10/11 04:31:42;;;;;;;20.80;8.75;;;;;;;-149.70;100.00;76605.38;5077663;28;20522;-62
2023/10/11 04:34:14;;;;;;;24.08;9.23;;;;;;;-149.70;100.00;76601.31;5076282;28;20036;-62
2023/10/11 04:36:42;;;;;;;21.75;8.60;;;;;;;-149.70;100.00;76599.28;5077684;28;20045;-63
2023/10/11 04:39:18;;;;;;;19.30;8.70;;;;;;;-149.70;100.00;76597.25;5077121;28;20071;-62
2023/10/11 04:41:56;;;;;;;32.05;9.43;;;;;;;-149.70;100.00;76593.19;5076779;28;20048;-62
2023/10/11 04:44:24;;;;;;;21.45;9.13;;;;;;;-149.70;100.00;76601.31;5077393;28;20048;-62
2023/10/11 04:47:00;;;;;;;25.15;9.32;;;;;;;-149.70;100.00;76597.25;5076504;28;20052;-62
2023/10/11 04:49:30;;;;;;;21.70;10.02;;;;;;;-149.70;100.00;76601.31;5077640;28;20045;-62
2023/10/11 04:51:58;;;;;;;20.85;8.43;;;;;;;-149.70;100.00;76597.25;5078277;28;20044;-62
2023/10/11 04:54:36;;;;;;;20.25;9.18;;;;;;;-149.70;100.00;76597.25;5076661;28;20420;-61
2023/10/11 04:57:07;;;;;;;20.60;8.80;;;;;;;-149.70;100.00;76605.38;5078080;28;20041;-67
2023/10/11 05:02:09;;;;;;;19.85;9.57;;;;;;;-149.70;100.00;76605.38;5078120;28;20123;-68
2023/10/11 05:04:42;;;;;;;18.23;8.45;;;;;;;-149.70;100.00;76605.38;5077397;28;20056;-71
2023/10/11 05:07:09;;;;;;;20.70;9.30;;;;;;;-149.70;100.00;76609.44;5077884;28;20044;-66
2023/10/11 05:09:41;;;;;;;21.50;9.15;;;;;;;-149.70;100.00;76609.44;5068578;28;20044;-67
2023/10/11 05:12:19;;;;;;;24.48;9.18;;;;;;;-149.70;100.00;76605.38;5078577;27;20055;-67
2023/10/11 05:19:55;;;;;;;21.67;9.23;;;;;;;-149.70;100.00;76615.56;5079207;28;20051;-66
2023/10/11 05:22:35;;;;;;;23.27;9.00;;;;;;;-149.70;100.00;76621.66;5078116;28;20044;-66
2023/10/11 05:32:54;;;;;;;20.70;8.10;;;;;;;-149.70;100.00;76609.44;5078157;28;20052;-66
2023/10/11 05:51:40;;;;;;;18.25;8.43;;;;;;;-149.70;100.00;76593.19;5080998;28;20480;-65
2023/10/11 05:54:08;;;;;;;21.38;8.68;;;;;;;-149.70;100.00;76591.16;5081285;28;20045;-65
2023/10/11 05:56:38;;;;;;;17.85;8.20;;;;;;;-149.70;100.00;76585.06;5082602;28;20049;-65
2023/10/11 05:59:10;;;;;;;19.60;8.25;;;;;;;-149.70;100.00;76587.09;5082940;28;20059;-65
2023/10/11 06:01:37;;;;;;;22.70;8.70;;;;;;;-149.70;100.00;76585.06;5080168;28;20052;-68
2023/10/11 06:04:04;;;;;;;23.52;8.63;;;;;;;-149.70;100.00;76576.91;5082937;28;20032;-66
2023/10/11 06:06:32;;;;;;;14.75;7.78;;;;;;;-149.70;100.00;76568.78;5082319;28;20071;-65
2023/10/11 06:08:59;;;;;;;19.73;8.45;;;;;;;-149.70;100.00;76562.69;5081961;28;20446;-65
2023/10/11 06:11:29;;;;;;;23.00;7.85;;;;;;;-149.70;100.00;76552.50;5083669;28;20072;-65
2023/10/11 06:13:56;;;;;;;17.15;8.10;;;;;;;-149.70;100.00;76546.41;5082277;28;20052;-66
2023/10/11 06:16:23;;;;;;;19.70;7.50;;;;;;;-149.70;100.00;76552.50;5081838;28;20049;-64
2023/10/11 06:18:55;;;;;;;21.75;7.85;;;;;;;-149.70;100.00;76540.31;5081776;28;20060;-65
2023/10/11 06:21:33;;;;;;;18.73;7.45;;;;;;;-149.70;100.00;76532.19;5081173;28;20072;-66
2023/10/11 06:24:03;;;;;;;23.02;11.40;;;;;;;-149.70;100.00;76530.16;5082442;28;20066;-65
2023/10/11 06:29:05;;;;;;;18.60;7.63;;;;;;;-149.70;100.00;76517.94;5081611;28;20036;-64
2023/10/11 06:31:39;;;;;;;24.90;8.02;;;;;;;-149.70;100.00;76495.59;5081319;28;20040;-64
2023/10/11 06:34:15;;;;;;;16.38;7.72;;;;;;;-149.70;100.00;76497.63;5081421;28;20048;-69
2023/10/11 06:36:48;;;;;;;27.88;7.75;;;;;;;-149.70;100.00;76489.47;5081947;28;20052;-66
2023/10/11 06:42:14;;;;;;;21.95;7.93;;;;;;;-149.70;100.00;76473.22;5075932;28;20474;-65
2023/10/11 06:44:42;;;;;;;23.95;7.55;;;;;;;-149.70;100.00;76458.97;5077402;28;20045;-65
2023/10/11 06:47:11;;;;;;;19.80;8.13;;;;;;;-149.70;100.00;76450.84;5076623;28;20113;-65
2023/10/11 06:49:47;;;;;;;16.02;7.28;;;;;;;-149.70;100.00;76454.91;5076803;28;20051;-65
2023/10/11 06:52:25;;;;;;;21.27;7.32;;;;;;;-149.70;100.00;76438.66;5077007;28;20041;-66
2023/10/11 06:57:45;;;;;;;28.10;7.43;;;;;;;-149.70;100.00;76406.13;5076900;28;20315;-65
2023/10/11 07:00:29;;;;;;;27.52;7.15;;;;;;;-149.70;100.00;76391.88;5077698;28;20059;-65
2023/10/11 07:03:09;;;;;;;20.48;7.28;;;;;;;-149.70;100.00;76363.41;5077301;28;20051;-64
2023/10/11 07:05:41;;;;;;;15.82;7.07;;;;;;;0.90;100.00;98705.41;5076854;28;20044;-65
2023/10/11 07:08:09;;;;;;;18.00;6.13;;;;;;;3.90;100.00;99186.59;5077090;28;20393;-65
2023/10/11 07:10:45;;;;;;;18.83;7.25;;;;;;;7.88;100.00;99807.06;5076285;28;20500;-67
2023/10/11 07:13:13;;;;;;;20.60;6.75;;;;;;;9.87;100.00;100122.34;5076412;28;20475;-65
2023/10/11 07:15:44;;;;;;;15.57;7.05;;;;;;;11.13;100.00;100291.44;5076221;28;20059;-65
2023/10/11 07:18:28;;;;;;;17.92;6.72;;;;;;;12.15;100.00;100398.91;5076027;28;20063;-65
2023/10/11 07:21:10;;;;;;;14.10;7.15;;;;;;;12.62;100.00;100446.31;5076457;28;20164;-65
2023/10/11 07:28:59;;;;;;;19.98;7.30;;;;;;;13.18;100.00;100452.25;5074947;28;20130;-65
2023/10/11 07:31:38;;;;;;;18.55;7.57;;;;;;;13.28;100.00;100455.53;5075551;28;20474;-65
2023/10/11 07:34:08;;;;;;;21.48;6.50;;;;;;;13.25;100.00;100460.41;5075227;28;20036;-65
2023/10/11 07:36:37;;;;;;;16.02;6.95;;;;;;;13.48;100.00;100460.34;5074965;28;20047;-64
2023/10/11 07:39:14;;;;;;;24.90;7.40;;;;;;;13.67;100.00;100465.19;5076089;28;20051;-66
2023/10/11 07:41:42;;;;;;;15.45;6.80;;;;;;;14.00;100.00;100475.56;5074791;28;20107;-65
2023/10/11 07:44:12;;;;;;;17.33;6.18;;;;;;;14.18;100.00;100484.09;5075003;28;20415;-65
2023/10/11 07:46:40;;;;;;;17.08;6.53;;;;;;;14.36;100.00;100470.19;5068938;28;20113;-65
2023/10/11 07:49:08;;;;;;;15.77;6.10;;;;;;;14.54;100.00;100461.66;5085434;28;20055;-66
2023/10/11 07:51:39;;;;;;;16.17;6.95;;;;;;;14.57;100.00;100445.09;5075735;28;20037;-65
2023/10/11 07:54:06;;;;;;;15.38;6.63;;;;;;;14.55;100.00;100452.53;5075064;28;20098;-69
2023/10/11 07:56:37;;;;;;;16.98;6.35;;;;;;;14.62;100.00;100464.22;5074995;28;20104;-65
2023/10/11 07:59:10;;;;;;;21.90;6.65;;;;;;;14.80;100.00;100460.25;5075282;28;20132;-65
2023/10/11 08:01:44;;;;;;;17.50;6.43;;;;;;;14.59;100.00;100455.66;5074948;28;20036;-65
2023/10/11 08:04:21;;;;;;;16.70;6.35;;;;;;;14.35;100.00;100444.22;5073607;28;20048;-65
2023/10/11 08:07:03;;;;;;;15.50;6.00;;;;;;;14.27;100.00;100449.75;5074938;28;20132;-66
2023/10/11 08:09:45;;;;;;;13.80;6.03;;;;;;;14.57;100.00;100461.28;5075610;28;20067;-65
2023/10/11 08:12:18;;;;;;;12.02;6.20;;;;;;;14.92;100.00;100461.41;5075768;28;20047;-65
2023/10/11 08:14:46;;;;;;;19.67;6.30;;;;;;;15.13;100.00;100455.13;5066637;28;20056;-66
2023/10/11 08:17:21;;;;;;;19.63;5.70;;;;;;;15.22;100.00;100454.78;5076187;28;20044;-65
2023/10/11 08:19:53;;;;;;;16.92;6.22;;;;;;;15.59;100.00;100455.41;5075536;28;20056;-65
2023/10/11 08:22:22;;;;;;;15.80;6.10;;;;;;;15.87;100.00;100449.13;5074609;28;20508;-65
2023/10/11 08:24:51;;;;;;;17.35;6.60;;;;;;;15.86;100.00;100456.41;5073686;28;20044;-65
2023/10/11 08:27:29;;;;;;;10.25;5.30;;;;;;;16.29;100.00;100456.13;5077251;28;20052;-66
2023/10/11 08:30:16;;;;;;;16.90;7.15;;;;;;;16.53;100.00;100457.47;5077475;28;20074;-65
2023/10/11 08:32:43;;;;;;;13.60;5.82;;;;;;;16.66;100.00;100457.50;5077037;28;20044;-66
2023/10/11 08:35:26;;;;;;;13.45;5.78;;;;;;;17.13;100.00;100458.34;5076935;28;20174;-65
2023/10/11 08:37:53;;;;;;;24.02;6.13;;;;;;;17.46;100.00;100451.22;5078023;28;20041;-65
2023/10/11 08:40:29;;;;;;;14.88;5.45;;;;;;;17.75;100.00;100450.72;5076769;28;20067;-67
2023/10/11 08:43:01;;;;;;;16.13;6.10;;;;;;;18.21;100.00;100448.88;5076898;28;20048;-65
2023/10/11 08:45:49;;;;;;;11.65;5.40;;;;;;;18.46;100.00;100465.22;5077217;28;20404;-65
2023/10/11 08:48:17;;;;;;;17.50;5.75;;;;;;;18.60;100.00;100460.53;5077102;28;20044;-65
2023/10/11 08:50:52;;;;;;;13.93;5.93;;;;;;;18.68;100.00;100466.53;5076004;28;20435;-65
2023/10/11 08:53:24;;;;;;;15.65;5.97;;;;;;;18.70;100.00;100463.59;5077316;28;20131;-65
2023/10/11 08:55:56;;;;;;;15.38;5.32;;;;;;;18.90;100.00;100453.41;5076203;28;20064;-65
2023/10/11 08:58:23;;;;;;;15.50;5.93;;;;;;;18.97;100.00;100456.94;5076072;28;20063;-65
2023/10/11 09:00:55;;;;;;;20.05;5.80;;;;;;;19.45;100.00;100455.41;5075822;28;20054;-65
2023/10/11 09:03:31;;;;;;;;;;;;;;;19.35;100.00;100450.53;5076419;28;20048;-66
2023/10/11 09:05:59;;;;;;;18.25;6.60;;;;;;;20.10;95.92;100447.56;5076426;28;19920;-65
2023/10/11 09:08:31;;;;;;;16.45;6.03;;;;;;;19.96;89.49;100452.34;5076202;28;20065;-65
2023/10/11 09:11:12;;;;;;;10.32;5.55;;;;;;;20.77;81.07;100436.56;5076238;28;20550;-65
2023/10/11 09:13:41;;;;;;;17.45;6.25;;;;;;;20.75;82.45;100440.56;5076065;28;20071;-65
2023/10/11 09:16:14;;;;;;;12.85;5.65;;;;;;;21.30;74.39;100434.81;5075944;28;20407;-67
2023/10/11 09:18:46;;;;;;;15.30;5.50;;;;;;;21.62;71.35;100440.69;5075499;28;20044;-66
2023/10/11 09:21:17;;;;;;;15.23;5.70;;;;;;;21.51;70.16;100444.28;5075238;28;20124;-67
2023/10/11 09:23:49;;;;;;;18.67;5.15;;;;;;;20.97;74.07;100444.38;5075704;28;20053;-66
2023/10/11 09:26:35;;;;;;;;;;;;;;;20.07;81.00;100445.28;5075396;28;20040;-66
2023/10/11 09:29:05;;;;;;;17.67;5.85;;;;;;;19.99;85.74;100467.41;5075957;28;20327;-66
2023/10/11 09:31:32;;;;;;;18.33;6.05;;;;;;;19.75;93.79;100455.53;5076526;28;20044;-66
2023/10/11 09:34:00;;;;;;;18.75;5.78;;;;;;;19.02;95.71;100467.97;5075371;28;20044;-66
2023/10/11 09:36:28;;;;;;;13.40;5.70;;;;;;;18.93;100.00;100468.47;5075382;28;20118;-66
2023/10/11 09:38:56;;;;;;;15.98;5.22;;;;;;;19.90;93.97;100466.03;5076828;28;20043;-66
2023/10/11 09:41:29;;;;;;;14.52;5.28;;;;;;;20.29;83.05;100451.09;5075480;28;20055;-66
2023/10/11 09:43:59;;;;;;;13.50;5.10;;;;;;;20.41;83.11;100462.88;5076181;28;20036;-66
2023/10/11 09:46:30;;;;;;;20.17;5.60;;;;;;;19.91;83.69;100454.09;5074992;28;20075;-66
2023/10/11 09:48:59;;;;;;;15.55;5.18;;;;;;;19.70;87.74;100452.69;5075515;28;20060;-66
2023/10/11 09:51:35;;;;;;;22.30;6.18;;;;;;;19.98;86.53;100448.59;5075207;28;20066;-66
2023/10/11 09:54:07;;;;;;;27.95;5.65;;;;;;;19.40;90.11;100447.94;5075365;28;20051;-66
2023/10/11 09:57:03;;;;;;;14.05;5.75;;;;;;;19.69;86.78;100457.31;5075311;28;20461;-66
2023/10/11 09:59:43;;;;;;;13.85;5.93;;;;;;;20.59;81.54;100450.25;5075192;28;20044;-66
2023/10/11 10:02:28;;;;;;;18.60;5.28;;;;;;;20.85;77.42;100443.56;5074818;28;20105;-66
2023/10/11 10:04:57;;;;;;;13.80;5.50;;;;;;;21.04;75.77;100444.25;5074579;28;20455;-66
2023/10/11 10:07:32;;;;;;;17.83;4.55;;;;;;;21.93;68.95;100446.84;5074638;28;20056;-67
2023/10/11 10:10:01;;;;;;;12.20;4.70;;;;;;;22.24;64.16;100443.63;5079887;28;20521;-66
2023/10/11 10:12:40;;;;;;;13.85;4.75;;;;;;;22.42;60.92;100441.75;5074110;28;20048;-64
2023/10/11 10:15:20;;;;;;;18.55;5.13;;;;;;;22.58;59.40;100451.09;5072520;28;20533;-69
2023/10/11 10:17:56;;;;;;;22.55;6.45;;;;;;;23.25;56.58;100456.56;5075064;28;20048;-66
2023/10/11 10:20:33;;;;;;;14.88;5.07;;;;;;;23.20;54.53;100448.31;5073452;28;20470;-65
2023/10/11 10:23:16;;;;;;;16.30;4.90;;;;;;;22.62;55.43;100452.25;5074235;28;20123;-67
2023/10/11 10:25:46;;;;;;;22.48;5.40;;;;;;;22.51;55.48;100457.53;5075296;28;20131;-67
2023/10/11 10:28:32;;;;;;;10.57;4.22;;;;;;;22.00;54.96;100451.06;5073568;28;20098;-66
2023/10/11 10:31:16;;;;;;;14.95;5.35;;;;;;;21.67;56.16;100445.44;5073887;28;20113;-66
2023/10/11 10:33:50;;;;;;;10.48;4.43;;;;;;;21.84;57.70;100439.03;5073562;28;20556;-67
2023/10/11 10:36:29;;;;;;;16.55;4.22;;;;;;;22.06;57.09;100439.19;5073692;28;20086;-65
2023/10/11 10:41:36;;;;;;;13.23;5.25;;;;;;;21.86;58.24;100433.31;5074059;28;20404;-65
2023/10/11 10:44:11;;;;;;;16.10;5.00;;;;;;;21.79;59.79;100425.25;5073317;28;20040;-65
2023/10/11 10:46:53;;;;;;;11.60;5.15;;;;;;;21.98;58.36;100425.06;5074280;28;20416;-66
2023/10/11 10:49:23;;;;;;;11.75;5.28;;;;;;;21.78;59.42;100425.47;5072115;28;20060;-65
2023/10/11 10:51:53;;;;;;;18.60;5.20;;;;;;;22.02;57.80;100420.81;5074266;28;20419;-68
2023/10/11 10:54:25;;;;;;;20.52;5.03;;;;;;;22.09;58.17;100411.38;5074515;28;20117;-68
2023/10/11 10:56:53;;;;;;;11.88;4.30;;;;;;;22.04;58.87;100419.47;5073796;28;20052;-67
2023/10/11 10:59:21;;;;;;;21.40;5.05;;;;;;;22.19;57.75;100427.13;5072477;28;20052;-67
2023/10/11 11:01:50;;;;;;;13.25;5.03;;;;;;;21.99;57.52;100424.84;5073943;28;20079;-66
2023/10/11 11:04:22;;;;;;;16.92;5.35;;;;;;;21.43;58.97;100428.28;5073142;28;20048;-66
2023/10/11 11:06:53;;;;;;;10.13;4.80;;;;;;;21.27;60.54;100416.19;5073441;28;20077;-66
2023/10/11 11:09:27;;;;;;;13.95;5.25;;;;;;;21.25;60.79;100411.00;5065025;28;20064;-66
2023/10/11 11:12:14;;;;;;;19.60;4.90;;;;;;;21.23;61.34;100413.13;5073970;28;20055;-66
2023/10/11 11:14:58;;;;;;;14.13;5.13;;;;;;;20.85;62.29;100410.84;5074060;28;20045;-66
2023/10/11 11:17:47;;;;;;;19.77;5.90;;;;;;;21.00;63.89;100402.19;5073477;28;20052;-65
2023/10/11 11:20:29;;;;;;;15.13;4.40;;;;;;;21.09;64.48;100400.75;5073423;28;20106;-65
2023/10/11 11:22:58;;;;;;;14.88;4.97;;;;;;;21.12;62.53;100398.41;5073984;28;20040;-66
2023/10/11 11:28:25;;;;;;;15.48;5.55;;;;;;;21.19;61.83;100386.56;5074917;28;20293;-65
2023/10/11 11:30:51;;;;;;;16.45;5.22;;;;;;;21.18;61.56;100388.44;5069729;28;20052;-65
2023/10/11 11:33:34;;;;;;;12.43;5.35;;;;;;;21.47;61.69;100388.53;5066041;28;20424;-65
2023/10/11 11:36:11;;;;;;;15.02;4.30;;;;;;;21.44;62.00;100386.28;5086701;28;20052;-66
2023/10/11 11:38:48;;;;;;;12.15;4.85;;;;;;;21.20;61.98;100382.75;5073569;28;20105;-66
2023/10/11 11:41:18;;;;;;;17.35;5.22;;;;;;;21.32;62.23;100389.00;5073709;28;20093;-66
2023/10/11 11:43:54;;;;;;;15.60;4.85;;;;;;;21.37;61.15;100376.31;5073848;28;20049;-66
2023/10/11 11:46:20;;;;;;;18.08;5.50;;;;;;;21.33;61.16;100375.16;5074075;28;20059;-66
2023/10/11 11:48:50;;;;;;;13.15;5.20;;;;;;;21.47;60.91;100375.72;5073236;28;20045;-65
2023/10/11 11:51:17;;;;;;;18.30;4.93;;;;;;;21.41;60.07;100368.47;5073408;28;20067;-65
2023/10/11 11:53:46;;;;;;;15.23;4.70;;;;;;;21.22;59.15;100361.53;5073220;28;20104;-66
2023/10/11 11:56:14;;;;;;;18.65;4.75;;;;;;;21.29;58.25;100373.16;5073779;28;20048;-65
2023/10/11 11:58:47;;;;;;;17.52;4.75;;;;;;;21.35;59.19;100358.50;5073942;28;20048;-67
2023/10/11 12:01:17;;;;;;;9.45;4.28;;;;;;;21.13;58.68;100361.88;5076885;28;20109;-67
2023/10/11 12:03:53;;;;;;;12.93;4.57;;;;;;;21.37;59.04;100359.94;5077824;28;20064;-65
2023/10/11 12:06:21;;;;;;;14.07;5.45;;;;;;;21.60;57.98;100369.16;5077155;28;20128;-66
2023/10/11 12:08:59;;;;;;;22.00;4.93;;;;;;;21.53;58.09;100357.56;5069223;28;20076;-65
2023/10/11 12:11:29;;;;;;;15.20;4.80;;;;;;;21.71;58.00;100353.81;5077156;28;20109;-66
2023/10/11 12:13:57;;;;;;;10.63;4.68;;;;;;;21.43;59.62;100349.16;5076024;28;20056;-67
2023/10/11 12:16:28;;;;;;;18.58;5.55;;;;;;;21.36;58.45;100339.19;5076678;28;20052;-67
2023/10/11 12:19:03;;;;;;;12.65;4.90;;;;;;;21.08;58.70;100337.19;5077443;28;20122;-65
2023/10/11 12:21:33;;;;;;;19.07;4.70;;;;;;;21.05;61.03;100339.59;5076500;28;20049;-67
2023/10/11 12:24:51;;;;;;;13.55;4.60;;;;;;;21.01;61.79;100336.50;5077069;28;20066;-66
2023/10/11 12:27:00;;;;;;;19.45;4.50;;;;;;;21.11;62.46;100339.50;5076839;28;20063;-65
2023/10/11 12:29:27;;;;;;;14.98;4.72;;;;;;;20.65;65.86;100343.84;5077185;28;20079;-65
2023/10/11 12:31:58;;;;;;;32.25;5.22;;;;;;;20.44;67.72;100338.97;5076655;28;20098;-65